Time;durP1;ratioP1;P1;durP2;ratioP2;P2;SDS_P1;SDS_P2;PMS_P1;PMS_P2;Temp;Humidity;BMP_temperature;BMP_pressure;BME280_temperature;BME280_humidity;BME280_pressure;Samples;Min_cycle;Max_cycle;Signal;HPM_P1;HPM_P2
2023/09/21 00:00:45;;;;;;;2.03;0.77;;;17.30;99.90;;;;;;4989760;28;20065;-34
2023/09/21 00:03:14;;;;;;;2.47;0.65;;;17.30;99.90;;;;;;4986353;28;20078;-34
2023/09/21 00:05:40;;;;;;;3.03;0.88;;;17.30;99.90;;;;;;4987538;28;20053;-34
2023/09/21 00:08:06;;;;;;;2.83;1.00;;;17.30;99.90;;;;;;4987911;28;20043;-33
2023/09/21 00:10:32;;;;;;;3.42;0.93;;;17.30;99.90;;;;;;4984951;28;20046;-34
2023/09/21 00:13:03;;;;;;;2.15;0.95;;;17.30;99.90;;;;;;4984968;28;20046;-34
2023/09/21 00:15:29;;;;;;;2.50;1.00;;;17.30;99.90;;;;;;4983682;28;20082;-39
2023/09/21 00:17:56;;;;;;;2.35;0.80;;;17.30;99.90;;;;;;4984101;28;20074;-34
2023/09/21 00:20:42;;;;;;;1.80;0.75;;;17.30;99.90;;;;;;4985644;28;20054;-34
2023/09/21 00:23:09;;;;;;;3.65;0.90;;;17.30;99.90;;;;;;4986308;28;20611;-34
2023/09/21 00:25:36;;;;;;;2.20;0.90;;;17.30;99.90;;;;;;4985749;28;20125;-34
2023/09/21 00:28:12;;;;;;;1.77;0.82;;;17.30;99.90;;;;;;4981775;28;20141;-34
2023/09/21 00:30:39;;;;;;;3.00;0.80;;;17.30;99.90;;;;;;4981758;28;20058;-41
2023/09/21 00:33:08;;;;;;;2.65;0.73;;;17.30;99.90;;;;;;4972556;28;20060;-34
2023/09/21 00:35:39;;;;;;;2.70;0.93;;;17.30;99.90;;;;;;4989839;28;23187;-34
2023/09/21 00:38:31;;;;;;;3.47;0.90;;;17.30;99.90;;;;;;4984459;28;20117;-34
2023/09/21 00:41:00;;;;;;;4.57;0.80;;;17.30;99.90;;;;;;4988820;28;20060;-33
2023/09/21 00:43:27;;;;;;;3.60;0.90;;;17.40;99.90;;;;;;4987825;28;20050;-34
2023/09/21 00:45:54;;;;;;;2.15;0.98;;;17.40;99.90;;;;;;4989996;28;20077;-34
2023/09/21 00:48:25;;;;;;;2.92;0.80;;;17.40;99.90;;;;;;4987372;28;20149;-34
2023/09/21 00:50:57;;;;;;;4.18;1.00;;;17.40;99.90;;;;;;4988643;28;20058;-33
2023/09/21 00:53:27;;;;;;;3.50;0.95;;;17.40;99.90;;;;;;4987640;28;20496;-34
2023/09/21 00:56:08;;;;;;;2.70;0.93;;;17.40;99.90;;;;;;4986034;28;20062;-34
2023/09/21 00:58:36;;;;;;;3.63;1.10;;;17.40;99.90;;;;;;4970152;28;20050;-34
2023/09/21 01:01:02;;;;;;;2.50;0.75;;;17.40;99.90;;;;;;4987515;28;20050;-34
2023/09/21 01:03:28;;;;;;;2.53;0.80;;;17.40;99.90;;;;;;4987229;28;20046;-34
2023/09/21 01:05:54;;;;;;;1.80;0.80;;;17.40;99.90;;;;;;4983670;28;20527;-34
2023/09/21 01:08:28;;;;;;;2.38;0.77;;;17.40;99.90;;;;;;4986114;28;20068;-34
2023/09/21 01:10:55;;;;;;;3.03;1.00;;;17.40;99.90;;;;;;4988547;28;20061;-34
2023/09/21 01:13:21;;;;;;;2.67;1.00;;;17.40;99.90;;;;;;4987548;28;20105;-34
2023/09/21 01:16:00;;;;;;;5.90;0.88;;;17.40;99.90;;;;;;5003613;28;20086;-34
2023/09/21 01:18:26;;;;;;;2.78;0.90;;;17.50;99.90;;;;;;4984787;28;20504;-35
2023/09/21 01:21:00;;;;;;;1.85;0.73;;;17.50;99.90;;;;;;4979157;28;20056;-34
2023/09/21 01:23:45;;;;;;;2.35;0.80;;;17.50;99.90;;;;;;4998349;28;20046;-35
2023/09/21 01:26:12;;;;;;;3.35;1.00;;;17.50;99.90;;;;;;4989399;28;20480;-35
2023/09/21 01:28:38;;;;;;;2.20;0.75;;;17.50;99.90;;;;;;4991487;28;20054;-34
2023/09/21 01:31:05;;;;;;;2.78;1.15;;;17.60;99.90;;;;;;4981944;28;20049;-34
2023/09/21 01:33:33;;;;;;;2.05;0.88;;;17.60;99.90;;;;;;4982622;28;20492;-40
2023/09/21 01:35:59;;;;;;;1.83;0.50;;;17.60;99.90;;;;;;4964456;28;20133;-35
2023/09/21 01:38:26;;;;;;;2.08;0.80;;;17.60;99.90;;;;;;4980698;28;20200;-35
2023/09/21 01:40:53;;;;;;;2.65;0.90;;;17.60;99.90;;;;;;4981539;28;20054;-35
2023/09/21 01:43:19;;;;;;;5.32;0.88;;;17.60;99.90;;;;;;4984465;28;20416;-35
2023/09/21 01:45:50;;;;;;;2.45;1.05;;;17.70;99.90;;;;;;4987503;28;20057;-35
2023/09/21 01:48:18;;;;;;;2.40;0.73;;;17.70;99.90;;;;;;4984795;28;20061;-35
2023/09/21 01:50:47;;;;;;;2.30;0.80;;;17.70;99.90;;;;;;4987111;28;20061;-35
2023/09/21 01:53:20;;;;;;;1.90;0.73;;;17.70;99.90;;;;;;4983642;28;20114;-35
2023/09/21 01:55:47;;;;;;;2.05;0.73;;;17.70;99.90;;;;;;4980305;28;20412;-35
2023/09/21 01:58:15;;;;;;;2.63;0.80;;;17.70;99.90;;;;;;4963168;28;20054;-35
2023/09/21 02:00:48;;;;;;;3.30;0.70;;;17.70;99.90;;;;;;4979519;28;20626;-35
2023/09/21 02:03:18;;;;;;;2.10;0.63;;;17.70;99.90;;;;;;4977362;28;20146;-35
2023/09/21 02:05:46;;;;;;;1.52;0.70;;;17.70;99.90;;;;;;4977835;28;20100;-35
2023/09/21 02:08:12;;;;;;;2.03;0.80;;;17.70;99.90;;;;;;4959056;28;20426;-35
2023/09/21 02:10:43;;;;;;;3.33;0.82;;;17.70;99.90;;;;;;4976478;28;20046;-35
2023/09/21 02:13:09;;;;;;;3.30;0.80;;;17.70;99.90;;;;;;4979123;28;20991;-35
2023/09/21 02:15:37;;;;;;;2.83;0.82;;;17.70;99.90;;;;;;4977111;28;20080;-34
2023/09/21 02:18:04;;;;;;;2.40;0.75;;;17.70;99.90;;;;;;4974704;28;20141;-35
2023/09/21 02:20:30;;;;;;;2.33;0.77;;;17.70;99.90;;;;;;4980758;28;20496;-35
2023/09/21 02:23:00;;;;;;;1.98;0.70;;;17.70;99.90;;;;;;4973581;28;20054;-34
2023/09/21 02:25:30;;;;;;;4.18;0.88;;;17.70;99.90;;;;;;4978047;28;20401;-35
2023/09/21 02:27:56;;;;;;;1.88;0.73;;;17.70;99.90;;;;;;4984505;28;20058;-35
2023/09/21 02:30:23;;;;;;;2.10;0.60;;;17.70;99.90;;;;;;4981081;28;20057;-35
2023/09/21 02:32:53;;;;;;;4.55;1.10;;;17.70;99.90;;;;;;4985115;28;20050;-35
2023/09/21 02:35:26;;;;;;;2.05;0.93;;;17.70;99.90;;;;;;4984642;28;20062;-34
2023/09/21 02:37:53;;;;;;;4.13;1.00;;;17.70;99.90;;;;;;5000372;28;20098;-34
2023/09/21 02:40:20;;;;;;;3.53;0.70;;;17.70;99.90;;;;;;4944144;28;20656;-35
2023/09/21 02:42:48;;;;;;;2.08;0.82;;;17.60;99.90;;;;;;4945120;28;20047;-35
2023/09/21 02:45:15;;;;;;;2.33;0.70;;;17.60;99.90;;;;;;4946814;28;20047;-36
2023/09/21 02:47:42;;;;;;;2.13;0.70;;;17.60;99.90;;;;;;4945207;28;20051;-37
2023/09/21 02:50:15;;;;;;;3.90;0.70;;;17.60;99.90;;;;;;4944945;28;20502;-35
2023/09/21 02:52:45;;;;;;;2.38;0.80;;;17.50;99.90;;;;;;4946798;28;20051;-35
2023/09/21 02:55:12;;;;;;;3.25;0.90;;;17.50;99.90;;;;;;4946203;28;20066;-35
2023/09/21 02:57:38;;;;;;;1.92;0.70;;;17.50;99.90;;;;;;4944569;28;20054;-35
2023/09/21 03:00:26;;;;;;;1.95;0.80;;;17.50;99.90;;;;;;4945332;28;20051;-35
2023/09/21 03:02:56;;;;;;;2.53;0.68;;;17.50;99.90;;;;;;4946241;28;20074;-36
2023/09/21 03:05:25;;;;;;;2.38;0.80;;;17.50;99.90;;;;;;4946967;28;20074;-35
2023/09/21 03:07:51;;;;;;;1.90;0.70;;;17.50;99.90;;;;;;4950339;28;20047;-35
2023/09/21 03:10:17;;;;;;;1.58;0.75;;;17.50;99.90;;;;;;4948658;28;20386;-36
2023/09/21 03:12:43;;;;;;;3.85;0.90;;;17.40;99.90;;;;;;4947440;28;20054;-36
2023/09/21 03:15:18;;;;;;;2.15;0.80;;;17.40;99.90;;;;;;4947044;28;20074;-36
2023/09/21 03:17:44;;;;;;;3.33;1.15;;;17.40;99.90;;;;;;4948566;28;20055;-35
2023/09/21 03:20:32;;;;;;;2.28;0.90;;;17.30;99.90;;;;;;4949202;28;20058;-36
2023/09/21 03:22:59;;;;;;;3.17;1.00;;;17.40;99.90;;;;;;4946245;28;20043;-35
2023/09/21 03:25:27;;;;;;;3.88;0.90;;;17.40;99.90;;;;;;4950092;28;20498;-34
2023/09/21 03:27:53;;;;;;;3.03;1.00;;;17.40;99.90;;;;;;4951303;28;20052;-35
2023/09/21 03:30:20;;;;;;;1.30;0.60;;;17.30;99.90;;;;;;4948335;28;21282;-35
2023/09/21 03:32:46;;;;;;;3.38;0.88;;;17.30;99.90;;;;;;4948460;28;20105;-35
2023/09/21 03:35:11;;;;;;;4.50;0.90;;;17.30;99.90;;;;;;4950584;28;20059;-35
2023/09/21 03:37:47;;;;;;;2.13;0.85;;;17.30;99.90;;;;;;4950889;28;20452;-38
2023/09/21 03:40:13;;;;;;;1.70;0.80;;;17.30;99.90;;;;;;4983034;28;20090;-37
2023/09/21 03:42:41;;;;;;;2.65;1.05;;;17.40;99.90;;;;;;4987701;28;20050;-35
2023/09/21 03:45:08;;;;;;;2.50;0.88;;;17.40;99.90;;;;;;4988167;28;20523;-35
2023/09/21 03:47:34;;;;;;;3.22;1.00;;;17.40;99.90;;;;;;4989169;28;20129;-35
2023/09/21 03:50:02;;;;;;;2.15;0.70;;;17.40;99.90;;;;;;4985513;28;20149;-35
2023/09/21 03:52:28;;;;;;;2.13;0.70;;;17.50;99.90;;;;;;4990259;28;20050;-35
2023/09/21 03:54:54;;;;;;;4.03;0.90;;;17.40;99.90;;;;;;4995655;28;20108;-35
2023/09/21 03:57:20;;;;;;;5.00;1.27;;;17.50;99.90;;;;;;4982817;28;20509;-36
2023/09/21 03:59:46;;;;;;;2.63;0.80;;;17.60;99.90;;;;;;4988148;28;20046;-33
2023/09/21 04:02:14;;;;;;;2.22;0.70;;;17.60;99.90;;;;;;4984272;28;20152;-34
2023/09/21 04:04:41;;;;;;;2.20;0.68;;;17.60;99.90;;;;;;4986160;28;20069;-34
2023/09/21 04:07:15;;;;;;;1.60;0.60;;;17.50;99.90;;;;;;4983187;28;20594;-34
2023/09/21 04:09:41;;;;;;;2.97;0.80;;;17.60;99.90;;;;;;4987826;28;20557;-34
2023/09/21 04:12:07;;;;;;;1.95;0.60;;;17.60;99.90;;;;;;4987755;28;20074;-34
2023/09/21 04:14:33;;;;;;;1.30;0.75;;;17.60;99.90;;;;;;4984174;28;20400;-34
2023/09/21 04:16:58;;;;;;;3.38;0.90;;;17.60;99.90;;;;;;4985691;28;20057;-35
2023/09/21 04:19:24;;;;;;;1.55;0.70;;;17.70;99.90;;;;;;4979136;28;20103;-34
2023/09/21 04:21:50;;;;;;;1.65;0.63;;;17.60;99.90;;;;;;4980708;28;20156;-34
2023/09/21 04:24:19;;;;;;;1.40;0.60;;;17.60;99.90;;;;;;4978551;28;20053;-34
2023/09/21 04:26:44;;;;;;;2.25;0.80;;;17.60;99.90;;;;;;4985294;28;20074;-34
2023/09/21 04:29:11;;;;;;;1.50;0.80;;;17.60;99.90;;;;;;4986820;28;20500;-34
2023/09/21 04:31:38;;;;;;;1.85;0.70;;;17.60;99.90;;;;;;4969577;28;20077;-34
2023/09/21 04:34:04;;;;;;;2.35;1.10;;;17.70;99.90;;;;;;4985864;28;20042;-34
2023/09/21 04:36:30;;;;;;;4.63;0.98;;;17.60;99.90;;;;;;4986372;28;20062;-35
2023/09/21 04:38:56;;;;;;;1.90;0.60;;;17.60;99.90;;;;;;4985839;28;20109;-34
2023/09/21 04:41:22;;;;;;;1.38;0.50;;;17.60;99.90;;;;;;4983888;28;20061;-34
2023/09/21 04:43:48;;;;;;;1.80;0.77;;;17.60;99.90;;;;;;4986699;28;20073;-36
2023/09/21 04:46:14;;;;;;;3.30;0.90;;;17.60;99.90;;;;;;4982518;28;20054;-35
2023/09/21 04:48:41;;;;;;;2.50;0.70;;;17.60;99.90;;;;;;4983546;28;20416;-35
2023/09/21 04:51:11;;;;;;;1.98;0.82;;;17.60;99.90;;;;;;4978849;28;20061;-35
2023/09/21 04:53:37;;;;;;;2.72;0.60;;;17.60;99.90;;;;;;4983775;28;20055;-35
2023/09/21 04:56:03;;;;;;;3.83;0.88;;;17.60;99.90;;;;;;4988912;28;20089;-35
2023/09/21 04:58:29;;;;;;;2.00;0.90;;;17.50;99.90;;;;;;4987189;28;20082;-36
2023/09/21 05:00:54;;;;;;;1.38;0.60;;;17.50;99.90;;;;;;4988376;28;20467;-36
2023/09/21 05:03:20;;;;;;;2.47;0.80;;;17.50;99.90;;;;;;4983278;28;20058;-35
2023/09/21 05:05:47;;;;;;;2.58;0.82;;;17.50;99.90;;;;;;4984773;28;20133;-35
2023/09/21 05:08:13;;;;;;;2.20;0.68;;;17.50;99.90;;;;;;4982907;28;20054;-35
2023/09/21 05:10:41;;;;;;;2.58;1.10;;;17.50;99.90;;;;;;5002075;28;20057;-36
2023/09/21 05:13:06;;;;;;;2.65;0.90;;;17.50;99.90;;;;;;4980985;28;20062;-35
2023/09/21 05:15:32;;;;;;;1.80;0.70;;;17.40;99.90;;;;;;4987123;28;20073;-35
2023/09/21 05:17:58;;;;;;;4.53;1.00;;;17.50;99.90;;;;;;4985900;28;20556;-35
2023/09/21 05:20:24;;;;;;;2.38;0.88;;;17.50;99.90;;;;;;4984464;28;20078;-36
2023/09/21 05:22:51;;;;;;;2.85;1.00;;;17.40;99.90;;;;;;4985800;28;20100;-36
2023/09/21 05:25:17;;;;;;;1.92;0.95;;;17.50;99.90;;;;;;4983540;28;20105;-35
2023/09/21 05:27:43;;;;;;;2.10;0.70;;;17.50;99.90;;;;;;4981883;28;20046;-35
2023/09/21 05:30:09;;;;;;;4.30;1.23;;;17.50;99.90;;;;;;4980456;28;21338;-35
2023/09/21 05:32:36;;;;;;;4.25;0.80;;;17.50;99.90;;;;;;4981983;28;20054;-35
2023/09/21 05:35:03;;;;;;;2.15;0.75;;;17.50;99.90;;;;;;4981832;28;20054;-35
2023/09/21 05:37:31;;;;;;;1.98;0.70;;;17.60;99.90;;;;;;4983351;28;20042;-35
2023/09/21 05:39:57;;;;;;;3.22;0.88;;;17.60;99.90;;;;;;4986363;28;20505;-35
2023/09/21 05:42:23;;;;;;;2.67;0.80;;;17.60;99.90;;;;;;4983149;28;20078;-35
2023/09/21 05:44:50;;;;;;;2.08;0.82;;;17.70;99.90;;;;;;4987081;28;20064;-35
2023/09/21 05:47:16;;;;;;;2.95;1.00;;;17.60;99.90;;;;;;4979319;28;20631;-35
2023/09/21 05:49:43;;;;;;;5.45;0.98;;;17.70;99.90;;;;;;4982174;28;20121;-35
2023/09/21 05:52:12;;;;;;;2.35;0.70;;;17.70;99.90;;;;;;4981331;28;20043;-35
2023/09/21 05:54:44;;;;;;;5.03;0.85;;;17.70;99.90;;;;;;4979626;28;20531;-34
2023/09/21 05:57:11;;;;;;;1.70;0.70;;;17.70;99.90;;;;;;4977923;28;20548;-35
2023/09/21 05:59:37;;;;;;;2.50;0.85;;;17.80;99.90;;;;;;4978678;28;20046;-35
2023/09/21 06:02:05;;;;;;;4.43;0.95;;;17.80;99.90;;;;;;4977381;28;20050;-35
2023/09/21 06:04:31;;;;;;;3.65;1.00;;;17.80;99.90;;;;;;4975336;28;20150;-35
2023/09/21 06:06:58;;;;;;;3.97;0.80;;;17.80;99.90;;;;;;4980104;28;20134;-35
2023/09/21 06:09:24;;;;;;;3.67;0.90;;;17.90;99.90;;;;;;4992271;28;20042;-35
2023/09/21 06:11:51;;;;;;;2.95;1.00;;;17.90;99.90;;;;;;4974180;28;20139;-35
2023/09/21 06:14:17;;;;;;;3.47;0.82;;;17.90;99.90;;;;;;4976773;28;20047;-34
2023/09/21 06:16:44;;;;;;;1.83;0.70;;;18.00;99.90;;;;;;4976332;28;20157;-35
2023/09/21 06:19:13;;;;;;;1.95;0.77;;;18.00;99.90;;;;;;4982698;28;20054;-35
2023/09/21 06:21:39;;;;;;;1.42;0.73;;;18.00;99.90;;;;;;4985257;28;20456;-34
2023/09/21 06:24:12;;;;;;;5.20;1.15;;;18.00;99.90;;;;;;4980832;28;21098;-35
2023/09/21 06:26:38;;;;;;;3.35;1.02;;;18.10;99.90;;;;;;4981823;28;20137;-35
2023/09/21 06:29:04;;;;;;;2.28;0.80;;;18.10;99.90;;;;;;4986451;28;20050;-35
2023/09/21 06:31:30;;;;;;;3.05;0.85;;;18.10;99.90;;;;;;4979255;28;20053;-35
2023/09/21 06:33:59;;;;;;;2.10;0.70;;;18.10;99.90;;;;;;4984785;28;20050;-35
2023/09/21 06:36:28;;;;;;;3.58;0.82;;;18.00;99.90;;;;;;4970410;28;20574;-34
2023/09/21 06:38:55;;;;;;;3.13;1.05;;;18.00;99.90;;;;;;4982372;28;20050;-35
2023/09/21 06:41:24;;;;;;;3.38;0.90;;;18.00;99.90;;;;;;4990053;28;20085;-36
2023/09/21 06:43:50;;;;;;;2.80;0.70;;;18.00;99.90;;;;;;4985694;28;20050;-35
2023/09/21 06:46:17;;;;;;;4.93;0.90;;;17.90;99.90;;;;;;4985491;28;20085;-35
2023/09/21 06:48:43;;;;;;;2.47;0.85;;;17.90;99.90;;;;;;4986866;28;20564;-35
2023/09/21 06:51:08;;;;;;;2.67;0.88;;;17.90;99.90;;;;;;4983191;28;20148;-35
2023/09/21 06:53:35;;;;;;;2.78;1.08;;;17.90;99.90;;;;;;4988800;28;20126;-35
2023/09/21 06:56:01;;;;;;;2.63;1.00;;;17.90;99.90;;;;;;4971060;28;20061;-35
2023/09/21 06:58:30;;;;;;;2.92;0.88;;;17.90;99.90;;;;;;4989870;28;20054;-35
2023/09/21 07:00:59;;;;;;;3.53;1.00;;;17.90;99.90;;;;;;4987626;28;20093;-35
2023/09/21 07:03:25;;;;;;;2.88;0.90;;;17.90;99.90;;;;;;4991446;28;20418;-36
2023/09/21 07:05:51;;;;;;;4.68;1.20;;;17.90;99.90;;;;;;4986728;28;20062;-34
2023/09/21 07:08:19;;;;;;;3.25;1.10;;;17.90;99.90;;;;;;4987942;28;20042;-35
2023/09/21 07:10:45;;;;;;;3.95;1.13;;;17.90;99.90;;;;;;4987036;28;20054;-34
2023/09/21 07:13:11;;;;;;;4.57;1.15;;;17.90;99.90;;;;;;4988896;28;20385;-35
2023/09/21 07:15:40;;;;;;;3.75;1.00;;;17.90;99.90;;;;;;4988444;28;20464;-35
2023/09/21 07:18:06;;;;;;;2.10;0.85;;;17.80;99.90;;;;;;4987104;28;20145;-35
2023/09/21 07:20:32;;;;;;;3.42;1.02;;;17.80;99.90;;;;;;4988473;28;20054;-34
2023/09/21 07:22:58;;;;;;;3.55;1.50;;;17.80;99.90;;;;;;4989956;28;20046;-35
2023/09/21 07:25:25;;;;;;;6.07;0.98;;;17.70;99.90;;;;;;4990230;28;20496;-35
2023/09/21 07:27:54;;;;;;;4.68;1.38;;;17.70;99.90;;;;;;4988770;28;20508;-35
2023/09/21 07:30:20;;;;;;;1.92;0.80;;;17.70;99.90;;;;;;4989020;28;20092;-35
2023/09/21 07:32:46;;;;;;;3.03;1.00;;;17.60;99.90;;;;;;4985301;28;20050;-34
2023/09/21 07:35:14;;;;;;;3.33;1.10;;;17.60;99.90;;;;;;4988557;28;20132;-34
2023/09/21 07:37:41;;;;;;;3.78;1.42;;;17.60;99.90;;;;;;4986125;28;20501;-34
2023/09/21 07:40:07;;;;;;;6.15;0.90;;;17.60;99.90;;;;;;4988723;28;20510;-35
2023/09/21 07:42:36;;;;;;;3.17;1.20;;;17.60;99.90;;;;;;4970879;28;20195;-34
2023/09/21 07:45:02;;;;;;;3.03;1.10;;;17.60;99.90;;;;;;4988073;28;20050;-34
2023/09/21 07:47:28;;;;;;;2.83;1.20;;;17.50;99.90;;;;;;4987350;28;20136;-34
2023/09/21 07:49:55;;;;;;;3.45;1.30;;;17.50;99.90;;;;;;4991364;28;20137;-35
2023/09/21 07:52:23;;;;;;;2.20;1.00;;;17.50;99.90;;;;;;4988367;28;20058;-35
2023/09/21 07:54:53;;;;;;;2.55;1.23;;;17.50;99.90;;;;;;4989680;28;20053;-35
2023/09/21 07:57:18;;;;;;;3.22;1.20;;;17.50;99.90;;;;;;4971627;28;20563;-35
2023/09/21 07:59:44;;;;;;;2.63;1.00;;;17.50;99.90;;;;;;4990025;28;20051;-36
2023/09/21 08:02:10;;;;;;;6.75;1.38;;;17.40;99.90;;;;;;4991676;28;20515;-35
2023/09/21 08:04:36;;;;;;;2.53;1.00;;;17.40;99.90;;;;;;4985390;28;20436;-35
2023/09/21 08:07:05;;;;;;;2.40;1.00;;;17.40;99.90;;;;;;4988107;28;20054;-35
2023/09/21 08:09:31;;;;;;;2.28;1.08;;;17.30;99.90;;;;;;4989938;28;20114;-35
2023/09/21 08:11:57;;;;;;;3.45;1.70;;;17.30;99.90;;;;;;4988846;28;20073;-34
2023/09/21 08:14:25;;;;;;;2.80;1.23;;;17.30;99.90;;;;;;4991241;28;20104;-34
2023/09/21 08:16:54;;;;;;;2.58;0.90;;;17.30;99.90;;;;;;4979448;28;20145;-35
2023/09/21 08:19:20;;;;;;;2.88;1.20;;;17.30;99.90;;;;;;4990969;28;20065;-34
2023/09/21 08:21:46;;;;;;;3.63;1.25;;;17.20;99.90;;;;;;4999765;28;20051;-35
2023/09/21 08:24:12;;;;;;;3.20;1.10;;;17.10;99.90;;;;;;4984296;28;20109;-35
2023/09/21 08:26:40;;;;;;;3.60;1.50;;;17.10;99.90;;;;;;4984609;28;20042;-34
2023/09/21 08:29:06;;;;;;;3.00;1.42;;;17.10;99.90;;;;;;4985523;28;20501;-34
2023/09/21 08:31:33;;;;;;;2.95;1.55;;;17.00;99.90;;;;;;4987753;28;20058;-34
2023/09/21 08:34:01;;;;;;;2.70;1.55;;;16.90;99.90;;;;;;4988342;28;20084;-34
2023/09/21 08:36:28;;;;;;;2.95;1.65;;;16.80;99.90;;;;;;4984233;28;20058;-34
2023/09/21 08:38:54;;;;;;;3.42;1.38;;;16.70;99.90;;;;;;4988830;28;20042;-34
2023/09/21 08:41:20;;;;;;;1.55;1.10;;;16.60;99.90;;;;;;4987056;28;20511;-34
2023/09/21 08:43:47;;;;;;;2.47;0.93;;;16.50;99.90;;;;;;4989824;28;20506;-34
2023/09/21 08:46:14;;;;;;;1.13;0.68;;;16.40;99.90;;;;;;4989377;28;20054;-34
2023/09/21 08:48:40;;;;;;;2.08;0.80;;;16.30;99.90;;;;;;4971547;28;20497;-34
2023/09/21 08:51:17;;;;;;;1.70;0.70;;;16.20;99.90;;;;;;4984283;28;20085;-34
2023/09/21 08:53:47;;;;;;;1.27;0.47;;;16.20;99.90;;;;;;4988215;28;20062;-34
2023/09/21 08:56:13;;;;;;;1.00;0.50;;;16.00;99.90;;;;;;4988828;28;20054;-34
2023/09/21 08:58:41;;;;;;;2.30;0.60;;;15.90;99.90;;;;;;4988005;28;20057;-34
2023/09/21 09:01:08;;;;;;;1.92;0.40;;;15.90;99.90;;;;;;4985106;28;20054;-34
2023/09/21 09:03:34;;;;;;;1.17;0.40;;;15.80;99.90;;;;;;4985288;28;20113;-34
2023/09/21 09:06:00;;;;;;;1.20;0.30;;;15.70;99.90;;;;;;4987740;28;20066;-34
2023/09/21 09:08:27;;;;;;;1.48;0.30;;;15.70;99.90;;;;;;4987607;28;20113;-34
2023/09/21 09:10:53;;;;;;;1.63;0.30;;;15.60;99.90;;;;;;4970711;28;20503;-35
2023/09/21 09:13:21;;;;;;;1.27;0.40;;;15.60;99.90;;;;;;4985936;28;20058;-34
2023/09/21 09:15:47;;;;;;;1.15;0.43;;;15.60;99.90;;;;;;4988040;28;20073;-34
2023/09/21 09:18:14;;;;;;;0.75;0.30;;;15.60;99.90;;;;;;4990438;28;20050;-34
2023/09/21 09:20:43;;;;;;;2.80;0.40;;;15.60;99.90;;;;;;4986797;28;20476;-35
2023/09/21 09:23:12;;;;;;;1.10;0.30;;;15.60;99.90;;;;;;4988261;28;20042;-34
2023/09/21 09:25:39;;;;;;;1.25;0.40;;;15.60;99.90;;;;;;4984823;28;20058;-35
2023/09/21 09:28:08;;;;;;;1.40;0.40;;;15.60;99.90;;;;;;4988321;28;20496;-35
2023/09/21 09:30:35;;;;;;;0.40;0.20;;;15.60;99.90;;;;;;4987847;28;20046;-34
2023/09/21 09:33:02;;;;;;;0.50;0.20;;;15.60;99.90;;;;;;4989449;28;20057;-34
2023/09/21 09:35:30;;;;;;;1.02;0.40;;;15.60;99.90;;;;;;4988841;28;20050;-34
2023/09/21 09:37:58;;;;;;;0.90;0.30;;;15.70;99.90;;;;;;4983806;28;20042;-34
2023/09/21 09:40:25;;;;;;;1.65;0.40;;;15.70;99.90;;;;;;4988349;28;20050;-34
2023/09/21 09:42:52;;;;;;;1.95;0.30;;;15.80;99.90;;;;;;4986811;28;20142;-34
2023/09/21 09:45:23;;;;;;;0.63;0.20;;;15.80;99.90;;;;;;4986321;28;20073;-35
2023/09/21 09:47:54;;;;;;;1.15;0.20;;;15.80;99.90;;;;;;4986389;28;20054;-35
2023/09/21 09:50:24;;;;;;;0.50;0.20;;;15.80;99.90;;;;;;4968681;28;20046;-35
2023/09/21 09:53:00;;;;;;;1.52;0.40;;;15.80;99.90;;;;;;4987236;28;20062;-33
2023/09/21 09:55:31;;;;;;;0.90;0.20;;;15.80;99.90;;;;;;4988595;28;20052;-34
2023/09/21 09:57:57;;;;;;;0.50;0.30;;;15.80;99.90;;;;;;4983895;28;20189;-34
2023/09/21 10:00:27;;;;;;;1.42;0.20;;;15.70;99.90;;;;;;4978913;28;20058;-34
2023/09/21 10:02:55;;;;;;;2.13;0.30;;;15.80;99.90;;;;;;4987019;28;20046;-34
2023/09/21 10:05:22;;;;;;;0.80;0.30;;;15.80;99.90;;;;;;4980966;28;20678;-34
2023/09/21 10:07:51;;;;;;;0.98;0.20;;;15.80;99.90;;;;;;4986739;28;20061;-37
2023/09/21 10:10:20;;;;;;;0.90;0.20;;;15.90;99.90;;;;;;5003110;28;20137;-35
2023/09/21 10:12:51;;;;;;;1.20;0.20;;;15.90;99.90;;;;;;4987245;28;20583;-35
2023/09/21 10:15:17;;;;;;;0.63;0.20;;;15.80;99.90;;;;;;4984091;28;20046;-35
2023/09/21 10:17:43;;;;;;;0.80;0.20;;;15.80;99.90;;;;;;4984325;28;20081;-35
2023/09/21 10:20:16;;;;;;;1.77;0.20;;;15.70;99.90;;;;;;4983372;28;20054;-35
2023/09/21 10:22:43;;;;;;;0.40;0.20;;;15.70;99.90;;;;;;4986067;28;20086;-35
2023/09/21 10:25:11;;;;;;;3.03;0.22;;;15.70;99.90;;;;;;4987649;28;20501;-35
2023/09/21 10:27:40;;;;;;;0.30;0.20;;;15.70;99.90;;;;;;4982486;28;20167;-35
2023/09/21 10:30:09;;;;;;;0.80;0.20;;;15.80;99.90;;;;;;4987148;28;20046;-39
2023/09/21 10:32:43;;;;;;;1.55;0.30;;;16.00;99.90;;;;;;4988348;28;20068;-35
2023/09/21 10:35:14;;;;;;;0.38;0.17;;;16.10;99.90;;;;;;4984655;28;20061;-35
2023/09/21 10:37:40;;;;;;;0.60;0.20;;;16.20;99.90;;;;;;4980897;28;20187;-35
2023/09/21 10:40:08;;;;;;;0.57;0.20;;;16.30;99.90;;;;;;4987418;28;20078;-35
2023/09/21 10:42:37;;;;;;;0.43;0.20;;;16.20;99.90;;;;;;4988406;28;20046;-35
2023/09/21 10:45:07;;;;;;;0.63;0.20;;;16.30;99.90;;;;;;4986912;28;20038;-35
2023/09/21 10:47:36;;;;;;;1.25;0.20;;;16.20;99.90;;;;;;4986712;28;20046;-35
2023/09/21 10:50:04;;;;;;;1.05;0.30;;;16.10;99.90;;;;;;4983184;28;20054;-35
2023/09/21 10:52:31;;;;;;;0.73;0.20;;;16.00;99.90;;;;;;4989089;28;20169;-35
2023/09/21 10:54:58;;;;;;;2.35;0.20;;;16.00;99.90;;;;;;4988302;28;20531;-35
2023/09/21 10:57:28;;;;;;;0.57;0.20;;;16.00;99.90;;;;;;4984029;28;20069;-35
2023/09/21 10:59:55;;;;;;;2.03;0.52;;;16.10;99.90;;;;;;4985024;28;20053;-34
2023/09/21 11:02:22;;;;;;;0.60;0.30;;;16.20;99.90;;;;;;4989010;28;20070;-35
2023/09/21 11:04:49;;;;;;;1.65;0.20;;;16.20;99.90;;;;;;4987982;28;20057;-35
2023/09/21 11:07:18;;;;;;;0.57;0.20;;;16.20;99.90;;;;;;4985909;28;20050;-35
2023/09/21 11:09:44;;;;;;;0.40;0.20;;;16.10;99.90;;;;;;4988275;28;20057;-35
2023/09/21 11:12:13;;;;;;;0.65;0.20;;;16.10;99.90;;;;;;4984450;28;20038;-34
2023/09/21 11:14:43;;;;;;;0.40;0.20;;;16.10;99.90;;;;;;4979921;28;20050;-35
2023/09/21 11:17:11;;;;;;;0.57;0.30;;;16.10;99.90;;;;;;4987587;28;20060;-35
2023/09/21 11:19:40;;;;;;;0.95;0.30;;;16.10;99.90;;;;;;4965244;28;20057;-35
2023/09/21 11:22:07;;;;;;;1.77;0.22;;;16.10;99.90;;;;;;4982804;28;20561;-35
2023/09/21 11:24:36;;;;;;;1.00;0.30;;;16.10;99.90;;;;;;4970490;28;20057;-35
2023/09/21 11:27:03;;;;;;;0.32;0.20;;;16.10;99.90;;;;;;4989994;28;20185;-35
2023/09/21 11:29:29;;;;;;;1.70;0.40;;;16.10;99.90;;;;;;4991418;28;20049;-34
2023/09/21 11:31:55;;;;;;;0.85;0.30;;;15.90;99.90;;;;;;4996543;28;20062;-35
2023/09/21 11:34:21;;;;;;;1.25;0.25;;;15.70;99.90;;;;;;4992060;28;20050;-34
2023/09/21 11:36:50;;;;;;;0.93;0.30;;;15.60;99.90;;;;;;4990721;28;20062;-35
2023/09/21 11:39:16;;;;;;;1.30;0.30;;;15.60;99.90;;;;;;4988932;28;20546;-35
2023/09/21 11:41:43;;;;;;;1.17;0.45;;;15.50;99.90;;;;;;4991549;28;20058;-35
2023/09/21 11:44:11;;;;;;;1.25;0.40;;;15.50;99.90;;;;;;4990629;28;20069;-36
2023/09/21 11:46:40;;;;;;;2.03;0.38;;;15.50;99.90;;;;;;4990983;28;20104;-35
2023/09/21 11:49:05;;;;;;;1.25;0.40;;;15.40;99.90;;;;;;4987089;28;20057;-35
2023/09/21 11:51:31;;;;;;;1.67;0.57;;;15.40;99.90;;;;;;4991507;28;20050;-36
2023/09/21 11:54:00;;;;;;;0.82;0.30;;;15.40;99.90;;;;;;4991776;28;20047;-36
2023/09/21 11:56:26;;;;;;;1.67;0.40;;;15.50;99.90;;;;;;4989531;28;20055;-36
2023/09/21 11:58:58;;;;;;;1.42;0.50;;;15.50;99.90;;;;;;4991748;28;20056;-36
2023/09/21 12:01:27;;;;;;;0.68;0.30;;;15.50;99.90;;;;;;4990699;28;20484;-36
2023/09/21 12:03:53;;;;;;;1.70;0.20;;;15.60;99.90;;;;;;4990570;28;20054;-36
2023/09/21 12:06:19;;;;;;;0.63;0.20;;;15.60;99.90;;;;;;4981948;28;20697;-35
2023/09/21 12:08:45;;;;;;;0.47;0.20;;;15.60;99.90;;;;;;4989776;28;20431;-36
2023/09/21 12:11:11;;;;;;;0.55;0.20;;;15.70;99.90;;;;;;4981521;28;20089;-36
2023/09/21 12:13:37;;;;;;;0.40;0.10;;;15.80;99.90;;;;;;4987390;28;20058;-36
2023/09/21 12:16:03;;;;;;;0.30;0.20;;;15.80;99.90;;;;;;4989601;28;20065;-36
2023/09/21 12:18:29;;;;;;;0.52;0.20;;;15.80;99.90;;;;;;4991536;28;20130;-36
2023/09/21 12:21:00;;;;;;;1.15;0.30;;;15.90;99.90;;;;;;4984596;28;20117;-35
2023/09/21 12:23:26;;;;;;;1.00;0.20;;;16.00;99.90;;;;;;4984037;28;20100;-35
2023/09/21 12:25:55;;;;;;;1.15;0.20;;;16.10;99.90;;;;;;4990598;28;20050;-36
2023/09/21 12:28:21;;;;;;;0.75;0.20;;;16.10;99.90;;;;;;4989706;28;20500;-35
2023/09/21 12:30:48;;;;;;;1.42;0.25;;;16.10;99.90;;;;;;4991478;28;20065;-35
2023/09/21 12:33:17;;;;;;;0.50;0.30;;;16.20;99.90;;;;;;4990122;28;20469;-36
2023/09/21 12:35:43;;;;;;;0.30;0.20;;;16.20;99.90;;;;;;4987075;28;20054;-36
2023/09/21 12:38:10;;;;;;;0.73;0.20;;;16.10;99.90;;;;;;4986261;28;20054;-35
2023/09/21 12:40:37;;;;;;;1.08;0.20;;;16.00;99.90;;;;;;4981500;28;20070;-35
2023/09/21 12:43:05;;;;;;;1.30;0.20;;;15.90;99.90;;;;;;4984827;28;20507;-35
2023/09/21 12:45:32;;;;;;;1.40;0.20;;;15.90;99.90;;;;;;4981694;28;20105;-35
2023/09/21 12:48:01;;;;;;;0.30;0.20;;;15.80;99.90;;;;;;4979883;28;20046;-35
2023/09/21 12:50:28;;;;;;;0.52;0.20;;;15.70;99.90;;;;;;4982037;28;20061;-35